sensor_id;sensor_type;location;lat;lon;timestamp;P1;durP1;ratioP1;P2;durP2;ratioP2
39792;SDS011;26080;42.264;24.536;2024-03-08T00:00:13;12.13;;;6.10;;
39792;SDS011;26080;42.264;24.536;2024-03-08T00:02:40;12.73;;;6.93;;
39792;SDS011;26080;42.264;24.536;2024-03-08T00:05:06;10.43;;;5.68;;
39792;SDS011;26080;42.264;24.536;2024-03-08T00:07:35;6.78;;;4.72;;
39792;SDS011;26080;42.264;24.536;2024-03-08T00:10:05;7.45;;;5.65;;
39792;SDS011;26080;42.264;24.536;2024-03-08T00:12:36;13.38;;;5.35;;
39792;SDS011;26080;42.264;24.536;2024-03-08T00:15:08;11.70;;;6.15;;
39792;SDS011;26080;42.264;24.536;2024-03-08T00:17:34;8.88;;;6.05;;
39792;SDS011;26080;42.264;24.536;2024-03-08T00:20:00;9.18;;;5.28;;
39792;SDS011;26080;42.264;24.536;2024-03-08T00:22:25;10.35;;;5.75;;
39792;SDS011;26080;42.264;24.536;2024-03-08T00:24:50;12.20;;;6.28;;
39792;SDS011;26080;42.264;24.536;2024-03-08T00:27:16;11.55;;;6.85;;
39792;SDS011;26080;42.264;24.536;2024-03-08T00:29:41;11.82;;;5.28;;
39792;SDS011;26080;42.264;24.536;2024-03-08T00:32:07;10.93;;;6.50;;
39792;SDS011;26080;42.264;24.536;2024-03-08T00:34:36;10.00;;;5.45;;
39792;SDS011;26080;42.264;24.536;2024-03-08T00:37:04;13.93;;;6.38;;
39792;SDS011;26080;42.264;24.536;2024-03-08T00:39:30;11.80;;;6.55;;
39792;SDS011;26080;42.264;24.536;2024-03-08T00:41:55;9.68;;;5.95;;
39792;SDS011;26080;42.264;24.536;2024-03-08T00:44:21;8.43;;;5.35;;
39792;SDS011;26080;42.264;24.536;2024-03-08T00:46:46;10.15;;;5.05;;
39792;SDS011;26080;42.264;24.536;2024-03-08T00:49:12;11.50;;;7.50;;
39792;SDS011;26080;42.264;24.536;2024-03-08T00:51:37;10.07;;;5.85;;
39792;SDS011;26080;42.264;24.536;2024-03-08T00:54:03;10.05;;;5.93;;
39792;SDS011;26080;42.264;24.536;2024-03-08T00:56:28;9.85;;;5.70;;
39792;SDS011;26080;42.264;24.536;2024-03-08T00:58:54;15.93;;;6.22;;
39792;SDS011;26080;42.264;24.536;2024-03-08T01:01:19;14.05;;;6.80;;
39792;SDS011;26080;42.264;24.536;2024-03-08T01:03:45;11.75;;;6.68;;
39792;SDS011;26080;42.264;24.536;2024-03-08T01:06:10;10.15;;;5.40;;
39792;SDS011;26080;42.264;24.536;2024-03-08T01:08:36;11.77;;;6.00;;
39792;SDS011;26080;42.264;24.536;2024-03-08T01:11:03;11.25;;;5.95;;
39792;SDS011;26080;42.264;24.536;2024-03-08T01:13:31;10.00;;;5.70;;
39792;SDS011;26080;42.264;24.536;2024-03-08T01:15:57;12.52;;;6.55;;
39792;SDS011;26080;42.264;24.536;2024-03-08T01:18:22;12.40;;;6.60;;
39792;SDS011;26080;42.264;24.536;2024-03-08T01:20:48;8.77;;;5.18;;
39792;SDS011;26080;42.264;24.536;2024-03-08T01:23:13;13.15;;;7.70;;
39792;SDS011;26080;42.264;24.536;2024-03-08T01:25:39;10.93;;;6.47;;
39792;SDS011;26080;42.264;24.536;2024-03-08T01:28:04;8.85;;;5.35;;
39792;SDS011;26080;42.264;24.536;2024-03-08T01:30:30;10.50;;;5.95;;
39792;SDS011;26080;42.264;24.536;2024-03-08T01:32:57;9.57;;;5.97;;
39792;SDS011;26080;42.264;24.536;2024-03-08T01:35:24;9.73;;;5.68;;
39792;SDS011;26080;42.264;24.536;2024-03-08T01:37:51;10.13;;;5.45;;
39792;SDS011;26080;42.264;24.536;2024-03-08T01:40:16;10.40;;;6.85;;
39792;SDS011;26080;42.264;24.536;2024-03-08T01:42:42;12.02;;;5.22;;
39792;SDS011;26080;42.264;24.536;2024-03-08T01:45:07;6.55;;;4.38;;
39792;SDS011;26080;42.264;24.536;2024-03-08T01:47:34;9.82;;;5.85;;
39792;SDS011;26080;42.264;24.536;2024-03-08T01:50:00;12.57;;;7.07;;
39792;SDS011;26080;42.264;24.536;2024-03-08T01:52:28;11.02;;;6.18;;
39792;SDS011;26080;42.264;24.536;2024-03-08T01:54:56;11.05;;;5.88;;
39792;SDS011;26080;42.264;24.536;2024-03-08T01:57:26;11.50;;;6.60;;
39792;SDS011;26080;42.264;24.536;2024-03-08T01:59:52;10.45;;;5.57;;
39792;SDS011;26080;42.264;24.536;2024-03-08T02:02:20;8.75;;;5.20;;
39792;SDS011;26080;42.264;24.536;2024-03-08T02:04:47;12.30;;;6.07;;
39792;SDS011;26080;42.264;24.536;2024-03-08T02:07:12;8.95;;;5.38;;
39792;SDS011;26080;42.264;24.536;2024-03-08T02:09:38;8.02;;;5.03;;
39792;SDS011;26080;42.264;24.536;2024-03-08T02:12:04;10.02;;;4.95;;
39792;SDS011;26080;42.264;24.536;2024-03-08T02:14:30;13.63;;;6.07;;
39792;SDS011;26080;42.264;24.536;2024-03-08T02:16:59;10.20;;;6.25;;
39792;SDS011;26080;42.264;24.536;2024-03-08T02:19:25;9.68;;;5.85;;
39792;SDS011;26080;42.264;24.536;2024-03-08T02:21:51;9.73;;;5.60;;
39792;SDS011;26080;42.264;24.536;2024-03-08T02:24:16;10.30;;;5.57;;
39792;SDS011;26080;42.264;24.536;2024-03-08T02:26:41;10.40;;;4.47;;
39792;SDS011;26080;42.264;24.536;2024-03-08T02:29:07;10.68;;;6.55;;
39792;SDS011;26080;42.264;24.536;2024-03-08T02:31:34;12.00;;;5.38;;
39792;SDS011;26080;42.264;24.536;2024-03-08T02:33:59;17.02;;;6.22;;
39792;SDS011;26080;42.264;24.536;2024-03-08T02:36:24;11.93;;;6.43;;
39792;SDS011;26080;42.264;24.536;2024-03-08T02:38:50;14.85;;;7.30;;
39792;SDS011;26080;42.264;24.536;2024-03-08T02:41:15;16.15;;;6.80;;
39792;SDS011;26080;42.264;24.536;2024-03-08T02:43:40;11.27;;;6.50;;
39792;SDS011;26080;42.264;24.536;2024-03-08T02:46:06;10.50;;;5.78;;
39792;SDS011;26080;42.264;24.536;2024-03-08T02:48:31;10.90;;;5.72;;
39792;SDS011;26080;42.264;24.536;2024-03-08T02:50:57;9.40;;;4.50;;
39792;SDS011;26080;42.264;24.536;2024-03-08T02:53:22;10.20;;;5.45;;
39792;SDS011;26080;42.264;24.536;2024-03-08T02:55:49;12.02;;;5.40;;
39792;SDS011;26080;42.264;24.536;2024-03-08T02:58:15;11.70;;;6.03;;
39792;SDS011;26080;42.264;24.536;2024-03-08T03:00:40;9.85;;;5.65;;
39792;SDS011;26080;42.264;24.536;2024-03-08T03:03:06;11.52;;;5.45;;
39792;SDS011;26080;42.264;24.536;2024-03-08T03:05:32;8.25;;;5.10;;
39792;SDS011;26080;42.264;24.536;2024-03-08T03:07:58;8.77;;;5.40;;
39792;SDS011;26080;42.264;24.536;2024-03-08T03:10:24;11.30;;;6.13;;
39792;SDS011;26080;42.264;24.536;2024-03-08T03:12:50;10.05;;;6.35;;
39792;SDS011;26080;42.264;24.536;2024-03-08T03:15:16;12.45;;;6.47;;
39792;SDS011;26080;42.264;24.536;2024-03-08T03:17:48;17.83;;;6.55;;
39792;SDS011;26080;42.264;24.536;2024-03-08T03:20:18;9.93;;;5.57;;
39792;SDS011;26080;42.264;24.536;2024-03-08T03:22:57;10.57;;;6.60;;
39792;SDS011;26080;42.264;24.536;2024-03-08T03:25:23;11.23;;;5.88;;
39792;SDS011;26080;42.264;24.536;2024-03-08T03:27:51;12.68;;;6.28;;
39792;SDS011;26080;42.264;24.536;2024-03-08T03:30:17;12.48;;;6.90;;
39792;SDS011;26080;42.264;24.536;2024-03-08T03:32:51;11.82;;;6.43;;
39792;SDS011;26080;42.264;24.536;2024-03-08T03:35:17;10.50;;;5.57;;
39792;SDS011;26080;42.264;24.536;2024-03-08T03:37:45;7.15;;;4.85;;
39792;SDS011;26080;42.264;24.536;2024-03-08T03:40:26;15.05;;;6.32;;
39792;SDS011;26080;42.264;24.536;2024-03-08T03:42:54;10.77;;;5.63;;
39792;SDS011;26080;42.264;24.536;2024-03-08T03:45:20;8.57;;;4.43;;
39792;SDS011;26080;42.264;24.536;2024-03-08T03:47:45;8.88;;;5.13;;
39792;SDS011;26080;42.264;24.536;2024-03-08T03:50:11;7.45;;;4.05;;
39792;SDS011;26080;42.264;24.536;2024-03-08T03:52:37;11.93;;;5.82;;
39792;SDS011;26080;42.264;24.536;2024-03-08T03:55:02;14.23;;;5.22;;
39792;SDS011;26080;42.264;24.536;2024-03-08T03:57:29;9.20;;;5.03;;
39792;SDS011;26080;42.264;24.536;2024-03-08T03:59:55;10.43;;;6.05;;
39792;SDS011;26080;42.264;24.536;2024-03-08T04:02:22;10.80;;;5.13;;
39792;SDS011;26080;42.264;24.536;2024-03-08T04:04:47;11.68;;;5.43;;
39792;SDS011;26080;42.264;24.536;2024-03-08T04:07:13;9.73;;;6.32;;
39792;SDS011;26080;42.264;24.536;2024-03-08T04:09:38;10.35;;;5.30;;
39792;SDS011;26080;42.264;24.536;2024-03-08T04:12:04;10.23;;;5.20;;
39792;SDS011;26080;42.264;24.536;2024-03-08T04:14:30;11.98;;;5.65;;
39792;SDS011;26080;42.264;24.536;2024-03-08T04:16:55;15.05;;;6.45;;
39792;SDS011;26080;42.264;24.536;2024-03-08T04:19:21;10.52;;;6.78;;
39792;SDS011;26080;42.264;24.536;2024-03-08T04:21:47;14.48;;;7.00;;
39792;SDS011;26080;42.264;24.536;2024-03-08T04:24:13;11.80;;;6.10;;
39792;SDS011;26080;42.264;24.536;2024-03-08T04:26:38;15.25;;;7.75;;
39792;SDS011;26080;42.264;24.536;2024-03-08T04:29:03;14.98;;;8.43;;
39792;SDS011;26080;42.264;24.536;2024-03-08T04:31:29;16.38;;;8.60;;
39792;SDS011;26080;42.264;24.536;2024-03-08T04:33:56;10.50;;;5.82;;
39792;SDS011;26080;42.264;24.536;2024-03-08T04:36:21;15.32;;;5.90;;
39792;SDS011;26080;42.264;24.536;2024-03-08T04:38:48;9.75;;;6.53;;
39792;SDS011;26080;42.264;24.536;2024-03-08T04:41:13;9.93;;;5.57;;
39792;SDS011;26080;42.264;24.536;2024-03-08T04:43:39;12.63;;;5.97;;
39792;SDS011;26080;42.264;24.536;2024-03-08T04:46:05;9.05;;;6.07;;
39792;SDS011;26080;42.264;24.536;2024-03-08T04:48:30;12.50;;;6.72;;
39792;SDS011;26080;42.264;24.536;2024-03-08T04:50:56;12.18;;;7.15;;
39792;SDS011;26080;42.264;24.536;2024-03-08T04:53:22;11.70;;;6.68;;
39792;SDS011;26080;42.264;24.536;2024-03-08T04:55:48;10.80;;;4.78;;
39792;SDS011;26080;42.264;24.536;2024-03-08T04:58:14;12.13;;;5.53;;
39792;SDS011;26080;42.264;24.536;2024-03-08T05:00:40;14.40;;;7.65;;
39792;SDS011;26080;42.264;24.536;2024-03-08T05:03:05;12.70;;;6.68;;
39792;SDS011;26080;42.264;24.536;2024-03-08T05:05:31;12.70;;;6.30;;
39792;SDS011;26080;42.264;24.536;2024-03-08T05:07:58;13.23;;;6.35;;
39792;SDS011;26080;42.264;24.536;2024-03-08T05:10:23;11.63;;;6.20;;
39792;SDS011;26080;42.264;24.536;2024-03-08T05:12:49;9.88;;;6.00;;
39792;SDS011;26080;42.264;24.536;2024-03-08T05:15:14;12.90;;;6.90;;
39792;SDS011;26080;42.264;24.536;2024-03-08T05:17:40;18.45;;;6.88;;
39792;SDS011;26080;42.264;24.536;2024-03-08T05:20:07;12.93;;;7.05;;
39792;SDS011;26080;42.264;24.536;2024-03-08T05:22:33;8.80;;;5.40;;
39792;SDS011;26080;42.264;24.536;2024-03-08T05:24:59;13.65;;;7.90;;
39792;SDS011;26080;42.264;24.536;2024-03-08T05:27:24;12.43;;;6.47;;
39792;SDS011;26080;42.264;24.536;2024-03-08T05:29:50;13.50;;;5.80;;
39792;SDS011;26080;42.264;24.536;2024-03-08T05:32:15;8.85;;;5.15;;
39792;SDS011;26080;42.264;24.536;2024-03-08T05:34:41;11.27;;;5.93;;
39792;SDS011;26080;42.264;24.536;2024-03-08T05:37:06;10.18;;;6.07;;
39792;SDS011;26080;42.264;24.536;2024-03-08T05:39:32;11.23;;;6.47;;
39792;SDS011;26080;42.264;24.536;2024-03-08T05:41:57;12.82;;;6.55;;
39792;SDS011;26080;42.264;24.536;2024-03-08T05:44:23;22.27;;;6.40;;
39792;SDS011;26080;42.264;24.536;2024-03-08T05:46:48;7.65;;;5.40;;
39792;SDS011;26080;42.264;24.536;2024-03-08T05:49:14;10.82;;;5.72;;
39792;SDS011;26080;42.264;24.536;2024-03-08T05:51:40;12.23;;;5.13;;
39792;SDS011;26080;42.264;24.536;2024-03-08T05:54:06;10.57;;;5.75;;
39792;SDS011;26080;42.264;24.536;2024-03-08T05:56:35;13.68;;;7.93;;
39792;SDS011;26080;42.264;24.536;2024-03-08T05:59:01;12.45;;;6.57;;
39792;SDS011;26080;42.264;24.536;2024-03-08T06:01:27;10.07;;;6.45;;
39792;SDS011;26080;42.264;24.536;2024-03-08T06:03:53;20.75;;;6.00;;
39792;SDS011;26080;42.264;24.536;2024-03-08T06:06:21;11.80;;;5.90;;
39792;SDS011;26080;42.264;24.536;2024-03-08T06:08:47;11.95;;;5.90;;
39792;SDS011;26080;42.264;24.536;2024-03-08T06:11:14;13.70;;;7.72;;
39792;SDS011;26080;42.264;24.536;2024-03-08T06:13:40;11.57;;;5.75;;
39792;SDS011;26080;42.264;24.536;2024-03-08T06:16:05;12.02;;;6.75;;
39792;SDS011;26080;42.264;24.536;2024-03-08T06:18:33;12.50;;;7.10;;
39792;SDS011;26080;42.264;24.536;2024-03-08T06:21:04;12.73;;;5.90;;
39792;SDS011;26080;42.264;24.536;2024-03-08T06:23:33;14.63;;;7.72;;
39792;SDS011;26080;42.264;24.536;2024-03-08T06:26:03;16.98;;;7.97;;
39792;SDS011;26080;42.264;24.536;2024-03-08T06:28:32;10.82;;;6.03;;
39792;SDS011;26080;42.264;24.536;2024-03-08T06:30:58;11.82;;;6.13;;
39792;SDS011;26080;42.264;24.536;2024-03-08T06:33:23;22.48;;;7.90;;
39792;SDS011;26080;42.264;24.536;2024-03-08T06:35:51;11.45;;;7.20;;
39792;SDS011;26080;42.264;24.536;2024-03-08T06:38:17;15.77;;;7.55;;
39792;SDS011;26080;42.264;24.536;2024-03-08T06:40:43;12.00;;;6.70;;
39792;SDS011;26080;42.264;24.536;2024-03-08T06:43:09;11.65;;;5.72;;
39792;SDS011;26080;42.264;24.536;2024-03-08T06:45:36;18.70;;;7.45;;
39792;SDS011;26080;42.264;24.536;2024-03-08T06:48:03;10.75;;;6.50;;
39792;SDS011;26080;42.264;24.536;2024-03-08T06:50:28;12.07;;;6.05;;
39792;SDS011;26080;42.264;24.536;2024-03-08T06:52:54;11.18;;;5.53;;
39792;SDS011;26080;42.264;24.536;2024-03-08T06:55:20;11.45;;;6.05;;
39792;SDS011;26080;42.264;24.536;2024-03-08T06:57:45;18.00;;;7.85;;
39792;SDS011;26080;42.264;24.536;2024-03-08T07:00:11;12.98;;;8.27;;
39792;SDS011;26080;42.264;24.536;2024-03-08T07:02:39;15.10;;;5.68;;
39792;SDS011;26080;42.264;24.536;2024-03-08T07:05:05;12.27;;;7.40;;
39792;SDS011;26080;42.264;24.536;2024-03-08T07:07:35;14.32;;;7.05;;
39792;SDS011;26080;42.264;24.536;2024-03-08T07:10:03;12.13;;;6.88;;
39792;SDS011;26080;42.264;24.536;2024-03-08T07:12:29;10.77;;;5.43;;
39792;SDS011;26080;42.264;24.536;2024-03-08T07:14:55;10.85;;;5.97;;
39792;SDS011;26080;42.264;24.536;2024-03-08T07:17:20;13.73;;;7.47;;
39792;SDS011;26080;42.264;24.536;2024-03-08T07:19:46;12.02;;;6.82;;
39792;SDS011;26080;42.264;24.536;2024-03-08T07:22:11;20.15;;;5.75;;
39792;SDS011;26080;42.264;24.536;2024-03-08T07:24:37;13.23;;;7.05;;
39792;SDS011;26080;42.264;24.536;2024-03-08T07:27:34;11.80;;;5.90;;
39792;SDS011;26080;42.264;24.536;2024-03-08T07:30:01;12.35;;;5.93;;
39792;SDS011;26080;42.264;24.536;2024-03-08T07:32:27;12.98;;;6.38;;
39792;SDS011;26080;42.264;24.536;2024-03-08T07:34:55;16.55;;;7.38;;
39792;SDS011;26080;42.264;24.536;2024-03-08T07:37:21;13.93;;;7.88;;
39792;SDS011;26080;42.264;24.536;2024-03-08T07:39:47;23.40;;;7.13;;
39792;SDS011;26080;42.264;24.536;2024-03-08T07:42:12;20.00;;;9.10;;
39792;SDS011;26080;42.264;24.536;2024-03-08T07:44:38;20.20;;;8.18;;
39792;SDS011;26080;42.264;24.536;2024-03-08T07:47:04;16.40;;;8.80;;
39792;SDS011;26080;42.264;24.536;2024-03-08T07:49:30;17.10;;;8.93;;
39792;SDS011;26080;42.264;24.536;2024-03-08T07:51:56;16.05;;;8.18;;
39792;SDS011;26080;42.264;24.536;2024-03-08T07:54:22;13.80;;;6.28;;
39792;SDS011;26080;42.264;24.536;2024-03-08T07:56:48;12.63;;;7.40;;
39792;SDS011;26080;42.264;24.536;2024-03-08T07:59:14;18.83;;;8.55;;
39792;SDS011;26080;42.264;24.536;2024-03-08T08:01:39;16.33;;;6.85;;
39792;SDS011;26080;42.264;24.536;2024-03-08T08:04:05;19.50;;;8.70;;
39792;SDS011;26080;42.264;24.536;2024-03-08T08:06:31;16.33;;;7.60;;
39792;SDS011;26080;42.264;24.536;2024-03-08T08:08:59;15.35;;;6.53;;
39792;SDS011;26080;42.264;24.536;2024-03-08T08:11:26;16.27;;;7.30;;
39792;SDS011;26080;42.264;24.536;2024-03-08T08:13:53;11.65;;;7.07;;
39792;SDS011;26080;42.264;24.536;2024-03-08T08:16:20;13.65;;;7.40;;
39792;SDS011;26080;42.264;24.536;2024-03-08T08:18:45;12.27;;;6.18;;
39792;SDS011;26080;42.264;24.536;2024-03-08T08:21:11;11.07;;;7.10;;
39792;SDS011;26080;42.264;24.536;2024-03-08T08:23:36;14.23;;;7.57;;
39792;SDS011;26080;42.264;24.536;2024-03-08T08:26:02;14.70;;;8.68;;
39792;SDS011;26080;42.264;24.536;2024-03-08T08:28:28;13.90;;;8.10;;
39792;SDS011;26080;42.264;24.536;2024-03-08T08:30:54;13.70;;;7.82;;
39792;SDS011;26080;42.264;24.536;2024-03-08T08:33:20;14.35;;;8.95;;
39792;SDS011;26080;42.264;24.536;2024-03-08T08:35:45;19.35;;;9.18;;
39792;SDS011;26080;42.264;24.536;2024-03-08T08:38:12;15.20;;;7.05;;
39792;SDS011;26080;42.264;24.536;2024-03-08T08:40:38;16.65;;;6.68;;
39792;SDS011;26080;42.264;24.536;2024-03-08T08:43:03;16.15;;;7.97;;
39792;SDS011;26080;42.264;24.536;2024-03-08T08:45:32;12.95;;;6.63;;
39792;SDS011;26080;42.264;24.536;2024-03-08T08:47:58;10.02;;;5.95;;
39792;SDS011;26080;42.264;24.536;2024-03-08T08:50:24;13.55;;;8.50;;
39792;SDS011;26080;42.264;24.536;2024-03-08T08:52:51;14.45;;;7.97;;
39792;SDS011;26080;42.264;24.536;2024-03-08T08:55:17;12.70;;;6.80;;
39792;SDS011;26080;42.264;24.536;2024-03-08T08:57:46;22.13;;;8.43;;
39792;SDS011;26080;42.264;24.536;2024-03-08T09:00:12;17.90;;;7.43;;
39792;SDS011;26080;42.264;24.536;2024-03-08T09:02:40;13.55;;;6.82;;
39792;SDS011;26080;42.264;24.536;2024-03-08T09:05:06;15.20;;;8.32;;
39792;SDS011;26080;42.264;24.536;2024-03-08T09:07:35;13.23;;;6.05;;
39792;SDS011;26080;42.264;24.536;2024-03-08T09:10:00;13.65;;;7.35;;
39792;SDS011;26080;42.264;24.536;2024-03-08T09:12:26;11.95;;;5.97;;
39792;SDS011;26080;42.264;24.536;2024-03-08T09:14:52;13.48;;;7.07;;
39792;SDS011;26080;42.264;24.536;2024-03-08T09:17:17;16.80;;;6.00;;
39792;SDS011;26080;42.264;24.536;2024-03-08T09:19:46;17.27;;;6.88;;
39792;SDS011;26080;42.264;24.536;2024-03-08T09:22:12;16.30;;;8.52;;
39792;SDS011;26080;42.264;24.536;2024-03-08T09:24:38;11.77;;;6.07;;
39792;SDS011;26080;42.264;24.536;2024-03-08T09:27:04;17.17;;;7.10;;
39792;SDS011;26080;42.264;24.536;2024-03-08T09:29:29;16.75;;;7.00;;
39792;SDS011;26080;42.264;24.536;2024-03-08T09:31:54;13.02;;;6.95;;
39792;SDS011;26080;42.264;24.536;2024-03-08T09:34:20;11.32;;;6.13;;
39792;SDS011;26080;42.264;24.536;2024-03-08T09:36:46;12.90;;;6.20;;
39792;SDS011;26080;42.264;24.536;2024-03-08T09:39:11;11.23;;;6.50;;
39792;SDS011;26080;42.264;24.536;2024-03-08T09:41:42;13.50;;;6.95;;
39792;SDS011;26080;42.264;24.536;2024-03-08T09:44:08;14.68;;;6.75;;
39792;SDS011;26080;42.264;24.536;2024-03-08T09:46:34;13.98;;;8.20;;
39792;SDS011;26080;42.264;24.536;2024-03-08T09:48:59;14.73;;;6.70;;
39792;SDS011;26080;42.264;24.536;2024-03-08T09:51:27;10.07;;;5.72;;
39792;SDS011;26080;42.264;24.536;2024-03-08T09:53:54;8.38;;;5.13;;
39792;SDS011;26080;42.264;24.536;2024-03-08T09:56:20;9.00;;;4.90;;
39792;SDS011;26080;42.264;24.536;2024-03-08T09:58:48;8.43;;;4.65;;
39792;SDS011;26080;42.264;24.536;2024-03-08T10:01:42;12.23;;;5.38;;
39792;SDS011;26080;42.264;24.536;2024-03-08T10:04:09;10.18;;;5.63;;
39792;SDS011;26080;42.264;24.536;2024-03-08T10:06:35;11.30;;;5.85;;
39792;SDS011;26080;42.264;24.536;2024-03-08T10:09:01;12.05;;;5.47;;
39792;SDS011;26080;42.264;24.536;2024-03-08T10:11:27;8.68;;;5.72;;
39792;SDS011;26080;42.264;24.536;2024-03-08T10:13:52;9.38;;;4.90;;
39792;SDS011;26080;42.264;24.536;2024-03-08T10:16:18;12.60;;;5.65;;
39792;SDS011;26080;42.264;24.536;2024-03-08T10:18:44;8.98;;;5.50;;
39792;SDS011;26080;42.264;24.536;2024-03-08T10:21:10;8.98;;;4.95;;
39792;SDS011;26080;42.264;24.536;2024-03-08T10:23:36;8.38;;;4.00;;
39792;SDS011;26080;42.264;24.536;2024-03-08T10:28:39;10.20;;;5.30;;
39792;SDS011;26080;42.264;24.536;2024-03-08T10:31:09;9.00;;;4.07;;
39792;SDS011;26080;42.264;24.536;2024-03-08T10:33:35;10.07;;;4.65;;
39792;SDS011;26080;42.264;24.536;2024-03-08T10:36:03;8.43;;;4.50;;
39792;SDS011;26080;42.264;24.536;2024-03-08T10:38:30;8.27;;;4.97;;
39792;SDS011;26080;42.264;24.536;2024-03-08T10:40:57;10.23;;;4.72;;
39792;SDS011;26080;42.264;24.536;2024-03-08T10:43:24;6.93;;;4.43;;
39792;SDS011;26080;42.264;24.536;2024-03-08T10:48:52;11.60;;;5.55;;
39792;SDS011;26080;42.264;24.536;2024-03-08T10:51:23;11.98;;;5.65;;
39792;SDS011;26080;42.264;24.536;2024-03-08T10:53:50;11.15;;;5.13;;
39792;SDS011;26080;42.264;24.536;2024-03-08T10:56:17;11.07;;;5.82;;
39792;SDS011;26080;42.264;24.536;2024-03-08T10:58:43;9.57;;;4.57;;
39792;SDS011;26080;42.264;24.536;2024-03-08T11:01:09;6.47;;;3.95;;
39792;SDS011;26080;42.264;24.536;2024-03-08T11:03:48;7.13;;;4.35;;
39792;SDS011;26080;42.264;24.536;2024-03-08T11:06:17;8.60;;;4.88;;
39792;SDS011;26080;42.264;24.536;2024-03-08T11:08:47;7.78;;;3.25;;
39792;SDS011;26080;42.264;24.536;2024-03-08T11:11:25;8.20;;;5.05;;
39792;SDS011;26080;42.264;24.536;2024-03-08T11:13:55;9.88;;;4.63;;
39792;SDS011;26080;42.264;24.536;2024-03-08T11:18:54;5.93;;;3.33;;
39792;SDS011;26080;42.264;24.536;2024-03-08T11:21:56;5.57;;;3.35;;
39792;SDS011;26080;42.264;24.536;2024-03-08T11:24:23;6.88;;;3.90;;
39792;SDS011;26080;42.264;24.536;2024-03-08T11:26:48;11.43;;;5.25;;
39792;SDS011;26080;42.264;24.536;2024-03-08T11:34:30;8.27;;;4.35;;
39792;SDS011;26080;42.264;24.536;2024-03-08T11:36:58;8.05;;;3.88;;
39792;SDS011;26080;42.264;24.536;2024-03-08T11:39:24;7.53;;;3.30;;
39792;SDS011;26080;42.264;24.536;2024-03-08T11:41:49;8.23;;;4.00;;
39792;SDS011;26080;42.264;24.536;2024-03-08T11:44:14;8.30;;;4.80;;
39792;SDS011;26080;42.264;24.536;2024-03-08T11:46:42;9.27;;;4.60;;
39792;SDS011;26080;42.264;24.536;2024-03-08T11:49:12;9.55;;;4.32;;
39792;SDS011;26080;42.264;24.536;2024-03-08T11:51:38;7.03;;;3.55;;
39792;SDS011;26080;42.264;24.536;2024-03-08T11:54:03;6.35;;;4.28;;
39792;SDS011;26080;42.264;24.536;2024-03-08T11:56:31;6.55;;;3.97;;
39792;SDS011;26080;42.264;24.536;2024-03-08T11:58:57;8.38;;;4.47;;
39792;SDS011;26080;42.264;24.536;2024-03-08T12:01:22;8.05;;;3.17;;
39792;SDS011;26080;42.264;24.536;2024-03-08T12:03:58;8.27;;;4.28;;
39792;SDS011;26080;42.264;24.536;2024-03-08T12:06:25;7.50;;;3.88;;
39792;SDS011;26080;42.264;24.536;2024-03-08T12:08:51;11.27;;;5.43;;
39792;SDS011;26080;42.264;24.536;2024-03-08T12:11:19;6.20;;;3.60;;
39792;SDS011;26080;42.264;24.536;2024-03-08T12:13:48;9.10;;;4.80;;
39792;SDS011;26080;42.264;24.536;2024-03-08T12:16:17;4.57;;;2.88;;
39792;SDS011;26080;42.264;24.536;2024-03-08T12:18:43;8.50;;;3.95;;
39792;SDS011;26080;42.264;24.536;2024-03-08T12:21:10;8.13;;;3.40;;
39792;SDS011;26080;42.264;24.536;2024-03-08T12:23:38;6.18;;;3.67;;
39792;SDS011;26080;42.264;24.536;2024-03-08T12:28:41;8.10;;;3.17;;
39792;SDS011;26080;42.264;24.536;2024-03-08T12:31:08;13.60;;;2.55;;
39792;SDS011;26080;42.264;24.536;2024-03-08T12:33:52;4.82;;;3.00;;
39792;SDS011;26080;42.264;24.536;2024-03-08T12:36:19;6.85;;;3.78;;
39792;SDS011;26080;42.264;24.536;2024-03-08T12:38:45;8.27;;;4.93;;
39792;SDS011;26080;42.264;24.536;2024-03-08T12:41:14;7.75;;;4.38;;
39792;SDS011;26080;42.264;24.536;2024-03-08T12:43:40;6.10;;;4.60;;
39792;SDS011;26080;42.264;24.536;2024-03-08T12:46:06;9.63;;;4.18;;
39792;SDS011;26080;42.264;24.536;2024-03-08T12:48:36;9.30;;;4.63;;
39792;SDS011;26080;42.264;24.536;2024-03-08T12:51:05;7.38;;;4.50;;
39792;SDS011;26080;42.264;24.536;2024-03-08T12:53:34;7.95;;;3.97;;
39792;SDS011;26080;42.264;24.536;2024-03-08T12:55:59;10.85;;;4.72;;
39792;SDS011;26080;42.264;24.536;2024-03-08T12:58:27;9.23;;;4.40;;
39792;SDS011;26080;42.264;24.536;2024-03-08T13:00:52;8.48;;;4.47;;
39792;SDS011;26080;42.264;24.536;2024-03-08T13:03:17;6.55;;;4.25;;
39792;SDS011;26080;42.264;24.536;2024-03-08T13:05:43;9.77;;;5.40;;
39792;SDS011;26080;42.264;24.536;2024-03-08T13:08:08;10.02;;;5.20;;
39792;SDS011;26080;42.264;24.536;2024-03-08T13:10:41;12.82;;;4.45;;
39792;SDS011;26080;42.264;24.536;2024-03-08T13:13:11;7.85;;;3.95;;
39792;SDS011;26080;42.264;24.536;2024-03-08T13:15:37;7.35;;;4.68;;
39792;SDS011;26080;42.264;24.536;2024-03-08T13:18:03;8.88;;;4.55;;
39792;SDS011;26080;42.264;24.536;2024-03-08T13:20:30;6.18;;;3.85;;
39792;SDS011;26080;42.264;24.536;2024-03-08T13:22:56;9.95;;;4.57;;
39792;SDS011;26080;42.264;24.536;2024-03-08T13:25:23;9.93;;;4.30;;
39792;SDS011;26080;42.264;24.536;2024-03-08T13:27:49;7.72;;;5.03;;
39792;SDS011;26080;42.264;24.536;2024-03-08T13:30:14;7.07;;;4.20;;
39792;SDS011;26080;42.264;24.536;2024-03-08T13:32:43;7.80;;;3.80;;
39792;SDS011;26080;42.264;24.536;2024-03-08T13:35:10;8.05;;;3.20;;
39792;SDS011;26080;42.264;24.536;2024-03-08T13:37:42;9.20;;;4.57;;
39792;SDS011;26080;42.264;24.536;2024-03-08T13:40:08;8.85;;;5.03;;
39792;SDS011;26080;42.264;24.536;2024-03-08T13:42:41;5.93;;;3.47;;
39792;SDS011;26080;42.264;24.536;2024-03-08T13:45:08;5.75;;;3.67;;
39792;SDS011;26080;42.264;24.536;2024-03-08T13:47:41;9.32;;;4.25;;
39792;SDS011;26080;42.264;24.536;2024-03-08T13:50:08;6.53;;;3.40;;
39792;SDS011;26080;42.264;24.536;2024-03-08T13:52:38;7.45;;;4.18;;
39792;SDS011;26080;42.264;24.536;2024-03-08T13:55:06;4.60;;;3.13;;
39792;SDS011;26080;42.264;24.536;2024-03-08T13:57:32;10.45;;;3.35;;
39792;SDS011;26080;42.264;24.536;2024-03-08T13:59:58;7.93;;;3.97;;
39792;SDS011;26080;42.264;24.536;2024-03-08T14:02:24;6.70;;;3.35;;
39792;SDS011;26080;42.264;24.536;2024-03-08T14:04:54;10.65;;;5.47;;
39792;SDS011;26080;42.264;24.536;2024-03-08T14:07:20;16.70;;;7.10;;
39792;SDS011;26080;42.264;24.536;2024-03-08T14:13:07;16.65;;;7.47;;
39792;SDS011;26080;42.264;24.536;2024-03-08T14:15:33;7.07;;;3.35;;
39792;SDS011;26080;42.264;24.536;2024-03-08T14:18:00;8.70;;;4.97;;
39792;SDS011;26080;42.264;24.536;2024-03-08T14:20:26;4.03;;;3.38;;
39792;SDS011;26080;42.264;24.536;2024-03-08T14:22:53;6.85;;;3.40;;
39792;SDS011;26080;42.264;24.536;2024-03-08T14:25:23;5.30;;;3.40;;
39792;SDS011;26080;42.264;24.536;2024-03-08T14:27:50;7.25;;;3.95;;
39792;SDS011;26080;42.264;24.536;2024-03-08T14:30:19;7.32;;;3.45;;
39792;SDS011;26080;42.264;24.536;2024-03-08T14:33:06;8.05;;;3.78;;
39792;SDS011;26080;42.264;24.536;2024-03-08T14:35:34;10.15;;;4.40;;
39792;SDS011;26080;42.264;24.536;2024-03-08T14:38:05;8.50;;;3.50;;
39792;SDS011;26080;42.264;24.536;2024-03-08T14:40:35;6.50;;;3.50;;
39792;SDS011;26080;42.264;24.536;2024-03-08T14:43:01;9.10;;;4.88;;